Babson Park, FL (33827)

4:32 PM EDT on July 29, 2016 (GMT -0400)
Babson Park, FL | | Change Station

Elev 161 ft 27.83 °N, 81.52 °W | Updated 8 seconds ago

Partly Cloudy
Partly Cloudy
79.5 °F
Feels Like 79 °F
N
0.0
Wind Variable Wind from WNW
Gusts 0.0 mph

Today
High -- | Low -- °F
--% Chance of Precip.
Yesterday
High -- | Low -- °F
Precip. -- in
Pressure 30.04 in
Visibility 7.0 miles
Clouds Few 7000 ft
Heat Index 79 °F
Dew Point 50 °F
Humidity 35%
Rainfall 0.76 in
Snow Depth Not available.
6:47 AM 8:17 PM
Waning Crescent, 19% visible
METAR KBOW 291952Z VRB03KT 7SM FEW070 28/23 A3004
Pressure 30.04 in
Visibility 7.0 miles
Clouds Few 7000 ft
Heat Index 79 °F
Dew Point 50 °F
Humidity 35%
Rainfall 0.76 in
Snow Depth Not available.
6:47 AM 8:17 PM
Waning Crescent, 19% visible
METAR KBOW 291952Z VRB03KT 7SM FEW070 28/23 A3004

10-Day Weather Forecast

Almanac

Astronomy

Jul. 29, 2016 Rise Set
Actual Time
Civil Twilight
Nautical Twilight
Astronomical Twilight
Moon
Length of Visible Light
Length of Day
Tomorrow will be .
, % of the Moon is Illuminated

Today's Extremes

State Highs State Lows

Community

WunderPhotos

Upload Photos

1,928,407 photos uploaded!

WunderBlog® & News

Nearby

Air Quality

  Air Quality AQ Index Pollutant
Not available.

Snow Depth

Station Depth Elevation

Earthquake Activity

City Distance Mag. Time & Date
Minimum magnitude displayed is 2.5.

Coastal Water Temperatures

Place Temperature

Stations

Nearby Weather Stations

Station Location Temp. Windchill Dew Point Humidity Wind Precip. Elev Updated Type
                   

Watches & Warnings

There are currently no watches in effect.